createdAt,value
2023-03-23T15:57:53.982Z,18.02
2023-03-23T16:00:22.647Z,18.03
2023-03-23T16:02:54.167Z,17.97
2023-03-23T16:05:21.041Z,17.98
2023-03-23T16:07:47.697Z,17.98
2023-03-23T16:10:23.720Z,17.90
2023-03-23T16:12:50.426Z,17.92
2023-03-23T16:15:17.617Z,17.83
2023-03-23T16:17:46.609Z,17.71
2023-03-23T16:20:23.947Z,17.68
2023-03-23T16:22:51.896Z,17.60
2023-03-23T16:25:19.164Z,17.61
2023-03-23T16:27:51.790Z,17.63
2023-03-23T16:30:22.282Z,17.60
2023-03-23T16:32:48.903Z,17.57
2023-03-23T16:35:16.261Z,17.57
2023-03-23T16:38:07.348Z,17.56
2023-03-23T16:40:38.784Z,17.62
2023-03-23T16:43:09.028Z,17.57
2023-03-23T16:45:36.157Z,17.55
2023-03-23T16:48:02.729Z,17.61
2023-03-23T16:50:30.110Z,17.65
2023-03-23T16:52:56.880Z,17.68
2023-03-23T16:55:26.010Z,17.58
2023-03-23T16:57:58.162Z,17.50
2023-03-23T17:00:32.717Z,17.42
2023-03-23T17:02:59.348Z,17.54
2023-03-23T17:05:29.519Z,17.54
2023-03-23T17:07:56.514Z,17.47
2023-03-23T17:10:27.024Z,17.44
2023-03-23T17:12:54.760Z,17.29
2023-03-23T17:15:21.882Z,17.38
2023-03-23T17:17:48.438Z,17.38
2023-03-23T17:20:15.049Z,17.38
2023-03-23T17:22:41.821Z,17.41
2023-03-23T17:25:09.497Z,17.50
2023-03-23T17:27:37.090Z,17.43
2023-03-23T17:30:08.601Z,17.32
2023-03-23T17:32:35.360Z,17.23
2023-03-23T17:35:02.336Z,17.24
2023-03-23T17:37:28.852Z,17.11
2023-03-23T17:39:55.394Z,17.21
2023-03-23T17:42:22.089Z,17.08
2023-03-23T17:44:48.653Z,17.10
2023-03-23T17:47:15.620Z,17.04
2023-03-23T17:49:42.081Z,17.11
2023-03-23T17:52:08.603Z,16.98
2023-03-23T17:54:35.229Z,16.88
2023-03-23T17:57:03.999Z,16.97
2023-03-23T17:59:31.362Z,17.11
2023-03-23T18:01:58.306Z,16.87
2023-03-23T18:04:26.978Z,16.75
2023-03-23T18:06:57.637Z,16.70
2023-03-23T18:09:25.475Z,16.56
2023-03-23T18:11:53.119Z,16.57
2023-03-23T18:14:20.837Z,16.52
2023-03-23T18:16:47.787Z,16.48
2023-03-23T18:19:14.837Z,16.54
2023-03-23T18:21:42.169Z,16.43
2023-03-23T18:24:09.400Z,16.39
2023-03-23T18:26:35.994Z,16.43
2023-03-23T18:29:02.978Z,16.50
2023-03-23T18:31:29.866Z,16.49
2023-03-23T18:33:56.756Z,16.46
2023-03-23T18:36:25.829Z,16.39
2023-03-23T18:38:56.562Z,16.33
2023-03-23T18:41:23.308Z,16.28
2023-03-23T18:43:49.875Z,16.36
2023-03-23T18:46:16.437Z,16.39
2023-03-23T18:48:43.868Z,16.27
2023-03-23T18:51:11.371Z,16.26
2023-03-23T18:53:37.932Z,16.31
2023-03-23T18:56:10.592Z,16.21
2023-03-23T18:58:37.821Z,16.12
2023-03-23T19:01:07.663Z,16.09
2023-03-23T19:03:36.144Z,16.06
2023-03-23T19:06:04.411Z,16.06
2023-03-23T19:08:32.143Z,16.11
2023-03-23T19:11:02.100Z,16.25
2023-03-23T19:13:30.709Z,16.29
2023-03-23T19:15:57.397Z,16.20
2023-03-23T19:18:24.122Z,16.16
2023-03-23T19:23:23.006Z,16.12
2023-03-23T19:25:49.978Z,16.07
2023-03-23T19:30:47.711Z,16.01
2023-03-23T19:33:14.786Z,15.98
2023-03-23T19:35:41.575Z,16.14
2023-03-23T19:38:08.965Z,16.05
2023-03-23T19:40:42.155Z,16.08
2023-03-23T19:43:17.464Z,16.01
2023-03-23T19:45:44.699Z,15.97
2023-03-23T19:48:11.483Z,15.92
2023-03-23T19:50:39.857Z,15.92
2023-03-23T19:53:06.673Z,15.85
2023-03-23T19:55:33.274Z,15.85
2023-03-23T19:58:00.358Z,15.92
2023-03-23T20:00:28.550Z,15.96
2023-03-23T20:02:55.172Z,15.83
2023-03-23T20:05:22.356Z,15.76
2023-03-23T20:07:51.805Z,15.79
2023-03-23T20:10:19.020Z,15.98
2023-03-23T20:12:45.651Z,15.82
2023-03-23T20:15:12.777Z,15.78
2023-03-23T20:17:39.361Z,15.72
2023-03-23T20:20:10.310Z,15.74
2023-03-23T20:22:37.852Z,15.70
2023-03-23T20:25:05.185Z,15.70
2023-03-23T20:27:32.372Z,15.77
2023-03-23T20:29:59.061Z,15.65
2023-03-23T20:32:25.641Z,15.75
2023-03-23T20:34:52.144Z,15.65
2023-03-23T20:37:20.813Z,15.56
2023-03-23T20:39:48.837Z,15.58
2023-03-23T20:42:15.810Z,15.55
2023-03-23T20:44:42.900Z,15.64
2023-03-23T20:47:10.386Z,15.55
2023-03-23T20:49:38.344Z,15.52
2023-03-23T20:52:08.129Z,15.62
2023-03-23T20:54:35.540Z,15.62
2023-03-23T20:57:02.661Z,15.60
2023-03-23T20:59:29.852Z,15.60
2023-03-23T21:01:56.468Z,15.36
2023-03-23T21:04:27.397Z,15.40
2023-03-23T21:06:54.797Z,15.47
2023-03-23T21:09:21.757Z,15.52
2023-03-23T21:11:48.556Z,15.46
2023-03-23T21:14:15.535Z,15.41
2023-03-23T21:16:42.912Z,15.51
2023-03-23T21:19:10.678Z,15.45
2023-03-23T21:21:55.518Z,15.42
2023-03-23T21:24:26.558Z,15.50
2023-03-23T21:26:54.650Z,15.47
2023-03-23T21:29:24.071Z,15.41
2023-03-23T21:32:00.940Z,15.37
2023-03-23T21:34:31.919Z,15.40
2023-03-23T21:36:58.677Z,15.29
2023-03-23T21:39:26.251Z,15.36
2023-03-23T21:41:53.033Z,15.45
2023-03-23T21:44:19.779Z,15.48
2023-03-23T21:46:46.377Z,15.34
2023-03-23T21:49:16.142Z,15.29
2023-03-23T21:51:43.313Z,15.28
2023-03-23T21:54:11.638Z,15.33
2023-03-23T21:56:38.448Z,15.37
2023-03-23T21:59:07.359Z,15.37
2023-03-23T22:01:36.905Z,15.50
2023-03-23T22:04:04.177Z,15.45
2023-03-23T22:06:31.461Z,15.41
2023-03-23T22:08:58.481Z,15.48
2023-03-23T22:11:27.686Z,15.48
2023-03-23T22:13:56.037Z,15.51
2023-03-23T22:16:23.428Z,15.45
2023-03-23T22:18:52.334Z,15.45
2023-03-23T22:21:22.024Z,15.72
2023-03-23T22:23:49.422Z,15.74
2023-03-23T22:26:16.586Z,15.72
2023-03-23T22:28:45.678Z,15.73
2023-03-23T22:31:18.446Z,15.80
2023-03-23T22:33:46.645Z,15.84
2023-03-23T22:36:13.817Z,15.80
2023-03-23T22:38:43.343Z,15.78
2023-03-23T22:41:17.936Z,15.74
2023-03-23T22:43:44.867Z,15.69
2023-03-23T22:46:11.465Z,15.62
2023-03-23T22:48:38.158Z,15.60
2023-03-23T22:51:04.869Z,15.68
2023-03-23T22:53:31.514Z,15.79
2023-03-23T22:55:58.606Z,15.76
2023-03-23T22:58:26.916Z,15.73
2023-03-23T23:00:59.509Z,15.80
2023-03-23T23:03:26.932Z,15.72
2023-03-23T23:05:55.106Z,15.75
2023-03-23T23:08:22.843Z,15.63
2023-03-23T23:10:51.084Z,15.71
2023-03-23T23:13:18.507Z,15.75
2023-03-23T23:15:49.853Z,15.66
2023-03-23T23:18:16.425Z,15.72
2023-03-23T23:20:44.084Z,15.67
2023-03-23T23:23:11.296Z,15.52
2023-03-23T23:25:38.136Z,15.55
2023-03-23T23:28:06.072Z,15.47
2023-03-23T23:30:34.098Z,15.42
2023-03-23T23:33:01.067Z,15.42
2023-03-23T23:35:28.018Z,15.47
2023-03-23T23:37:54.671Z,15.37
2023-03-23T23:40:21.418Z,15.39
2023-03-23T23:42:50.094Z,15.38
2023-03-23T23:45:17.422Z,15.58
2023-03-23T23:47:44.236Z,15.44
2023-03-23T23:50:12.011Z,15.46
2023-03-23T23:52:39.656Z,15.41
2023-03-23T23:55:08.042Z,15.40
2023-03-23T23:57:34.994Z,15.45
